ENSH/SVJ METAR and TAF weather

Enter ICAO airport designator
Station Type Date Time Source
ENSH METAR 2020/01/20 10:50 UTC NOAA

ENSH 201050Z 21022KT 9000 -SHRA VV017 06/04 Q0999 RMK WIND 150FT 19011KT


Station Type Date Time Source
ENSH Decoded METAR 2020/01/20 10:50 UTC NOAA

Svolvaer / Helle, Norway (ENSH) 68-15N 014-40E 9M
Jan 20, 2020 - 05:50 AM EST / 2020.01.20 1050 UTC
Wind: from the SSW (210 degrees) at 25 MPH (22 KT):0
Visibility: 5 mile(s):0
Sky conditions: obscured
Weather: light rain showers
Temperature: 42 F (6 C)
Dew Point: 39 F (4 C)
Relative Humidity: 86%
Pressure (altimeter): 29.50 in. Hg (0999 hPa)
ob: ENSH 201050Z 21022KT 9000 -SHRA VV017 06/04 Q0999 RMK WIND 150FT 19011KT
cycle: 11

Station Type Date Time Source
ENSH TAF UTC NOAA

Error!

Example: see airport list